Time;durP1;ratioP1;P1;durP2;ratioP2;P2;SDS_P1;SDS_P2;PMS_P1;PMS_P2;Temp;Humidity;BMP_temperature;BMP_pressure;BME280_temperature;BME280_humidity;BME280_pressure;Samples;Min_cycle;Max_cycle;Signal;HPM_P1;HPM_P2
2021/12/15 05:01:46;;;;;;;57.70;31.10;;;7.50;99.90;;;;;;5348111;23;20493;-75
2021/12/15 05:04:14;;;;;;;59.00;31.60;;;7.50;99.90;;;;;;4976688;28;20459;-75
2021/12/15 05:06:41;;;;;;;61.67;31.47;;;7.60;99.90;;;;;;4977009;28;20455;-75
2021/12/15 05:09:08;;;;;;;63.50;34.37;;;7.50;99.90;;;;;;4976978;28;20545;-75
2021/12/15 05:11:35;;;;;;;63.33;32.90;;;7.60;99.90;;;;;;4977257;28;20519;-76
2021/12/15 05:14:02;;;;;;;60.00;31.33;;;7.60;99.90;;;;;;4984922;28;20462;-75
2021/12/15 05:16:29;;;;;;;56.80;29.23;;;7.60;99.90;;;;;;4976816;28;20459;-75
2021/12/15 05:18:57;;;;;;;60.80;33.50;;;7.70;99.90;;;;;;4977002;28;20455;-76
2021/12/15 05:21:24;;;;;;;51.37;29.80;;;7.60;99.90;;;;;;4976548;28;20518;-75
2021/12/15 05:23:56;;;;;;;61.20;32.17;;;7.60;99.90;;;;;;4976553;28;20459;-75
2021/12/15 05:26:23;;;;;;;56.90;30.80;;;7.50;99.90;;;;;;4976532;28;20467;-75
2021/12/15 05:28:51;;;;;;;58.93;30.67;;;7.50;99.90;;;;;;4976365;28;20461;-75
2021/12/15 05:31:18;;;;;;;52.47;30.17;;;7.50;99.90;;;;;;4976587;28;20475;-74
2021/12/15 05:33:44;;;;;;;53.60;29.77;;;7.60;99.90;;;;;;4977428;28;20466;-75
2021/12/15 05:36:12;;;;;;;49.13;27.60;;;7.60;99.90;;;;;;4981242;28;20466;-75
2021/12/15 05:38:39;;;;;;;51.63;28.67;;;7.70;99.90;;;;;;4982878;28;20455;-74
2021/12/15 05:41:06;;;;;;;57.13;29.77;;;7.60;99.90;;;;;;4981831;28;20819;-74
2021/12/15 05:43:33;;;;;;;61.73;30.70;;;7.60;99.90;;;;;;4982064;28;20447;-75
2021/12/15 05:46:00;;;;;;;55.40;31.00;;;7.50;99.90;;;;;;4976151;28;20455;-75
2021/12/15 05:48:28;;;;;;;54.67;31.57;;;7.40;99.90;;;;;;4976802;28;20522;-74
2021/12/15 05:50:55;;;;;;;62.00;31.73;;;7.40;99.90;;;;;;4977234;28;20471;-74
2021/12/15 05:53:23;;;;;;;54.37;31.20;;;7.40;99.90;;;;;;4976317;28;20483;-75
2021/12/15 05:55:51;;;;;;;53.07;29.30;;;7.50;99.90;;;;;;4976175;28;20815;-75
2021/12/15 05:58:18;;;;;;;50.60;29.20;;;7.50;99.90;;;;;;4976657;28;20450;-75
2021/12/15 06:00:46;;;;;;;50.93;29.27;;;7.60;99.90;;;;;;4975447;28;20487;-74
2021/12/15 06:03:13;;;;;;;52.07;29.47;;;7.60;99.90;;;;;;4975958;28;20451;-75
2021/12/15 06:05:42;;;;;;;54.03;29.37;;;7.60;99.90;;;;;;4976251;28;20459;-77
2021/12/15 06:08:09;;;;;;;53.53;30.20;;;7.60;99.90;;;;;;4975986;28;20482;-75
2021/12/15 06:10:39;;;;;;;50.43;28.87;;;7.60;99.90;;;;;;4975707;28;21003;-75
2021/12/15 06:13:09;;;;;;;47.50;27.73;;;7.60;99.90;;;;;;4975576;28;21045;-75
2021/12/15 06:15:36;;;;;;;45.30;27.90;;;7.70;99.90;;;;;;4975928;28;20942;-75
2021/12/15 06:18:07;;;;;;;47.20;27.27;;;7.70;99.90;;;;;;4976034;28;20459;-74
2021/12/15 06:20:35;;;;;;;45.57;28.00;;;7.70;99.90;;;;;;4976362;28;20574;-74
2021/12/15 06:23:08;;;;;;;47.57;28.67;;;7.70;99.90;;;;;;4975852;28;20462;-74
2021/12/15 06:25:37;;;;;;;48.93;28.90;;;7.70;99.90;;;;;;4976138;28;20786;-74
2021/12/15 06:28:04;;;;;;;40.17;26.07;;;7.70;99.90;;;;;;4976324;28;20454;-75
2021/12/15 06:30:31;;;;;;;40.37;27.27;;;7.70;99.90;;;;;;4976223;28;20479;-74
2021/12/15 06:32:58;;;;;;;39.53;25.73;;;7.70;99.90;;;;;;4976052;28;20487;-75
2021/12/15 06:35:25;;;;;;;40.90;26.10;;;7.70;99.90;;;;;;4975640;28;20862;-74
2021/12/15 06:37:52;;;;;;;38.20;24.60;;;7.90;99.90;;;;;;4975962;28;20460;-75
2021/12/15 06:40:18;;;;;;;36.47;23.30;;;7.80;99.90;;;;;;4975591;28;20486;-75
2021/12/15 06:42:47;;;;;;;37.13;23.77;;;7.80;99.90;;;;;;4976520;28;20455;-74
2021/12/15 06:45:19;;;;;;;36.50;24.00;;;7.90;99.90;;;;;;4981743;28;20455;-75
2021/12/15 06:58:44;;;;;;;35.80;22.90;;;7.50;99.90;;;;;;4979734;28;20485;-73
2021/12/15 07:01:13;;;;;;;33.40;22.50;;;7.50;99.90;;;;;;4978756;28;20856;-75
2021/12/15 07:03:40;;;;;;;36.50;22.90;;;7.60;99.90;;;;;;4979845;28;20462;-74
2021/12/15 07:06:07;;;;;;;36.00;22.83;;;7.50;99.90;;;;;;4980052;28;20463;-75
2021/12/15 07:08:36;;;;;;;40.37;25.30;;;7.60;99.90;;;;;;4980051;28;20458;-74
2021/12/15 07:11:04;;;;;;;38.30;24.87;;;7.60;99.90;;;;;;4979204;28;21012;-75
2021/12/15 07:13:30;;;;;;;37.00;23.27;;;7.60;99.90;;;;;;4979464;28;20486;-74
2021/12/15 07:16:02;;;;;;;36.67;23.87;;;7.60;99.90;;;;;;4978951;28;21005;-73
2021/12/15 07:18:40;;;;;;;40.50;24.67;;;7.60;99.90;;;;;;4980393;28;20498;-74
2021/12/15 07:21:10;;;;;;;35.63;22.80;;;7.60;99.90;;;;;;4980149;28;20484;-71
2021/12/15 07:23:37;;;;;;;34.03;22.40;;;8.00;99.90;;;;;;4979067;28;20440;-70
2021/12/15 07:26:05;;;;;;;26.90;19.67;;;8.30;99.90;;;;;;4978427;28;20482;-70
2021/12/15 07:28:32;;;;;;;24.63;18.50;;;8.60;99.90;;;;;;4978556;28;20454;-70
2021/12/15 07:31:01;;;;;;;23.43;18.03;;;8.90;99.90;;;;;;4977993;28;21004;-69
2021/12/15 07:33:28;;;;;;;22.10;17.77;;;9.00;99.90;;;;;;4978176;28;20481;-70
2021/12/15 07:35:55;;;;;;;23.03;17.13;;;9.30;99.90;;;;;;4979022;28;20480;-70
2021/12/15 07:38:22;;;;;;;23.30;18.80;;;9.50;99.90;;;;;;4978590;28;20459;-71
2021/12/15 07:40:49;;;;;;;23.67;18.03;;;9.50;99.90;;;;;;4978040;28;20479;-70
2021/12/15 07:43:24;;;;;;;21.07;18.10;;;9.60;99.90;;;;;;4978044;28;20462;-69
2021/12/15 07:45:53;;;;;;;22.73;17.50;;;9.60;99.90;;;;;;4978040;28;20447;-69
2021/12/15 07:48:23;;;;;;;23.50;18.60;;;9.70;99.90;;;;;;4978042;28;20525;-70
2021/12/15 07:50:54;;;;;;;21.77;17.80;;;9.50;99.90;;;;;;4978206;28;20475;-74
2021/12/15 07:53:21;;;;;;;21.50;16.80;;;9.50;99.90;;;;;;4978396;28;20464;-73
2021/12/15 07:55:48;;;;;;;22.87;17.47;;;9.40;99.90;;;;;;4978359;28;20462;-73
2021/12/15 07:58:18;;;;;;;23.40;18.03;;;9.40;99.90;;;;;;4978171;28;20459;-73
2021/12/15 08:00:46;;;;;;;24.60;18.43;;;9.20;99.90;;;;;;4977744;28;20486;-73
2021/12/15 08:03:13;;;;;;;24.00;18.47;;;9.20;99.90;;;;;;4978203;28;20459;-74
2021/12/15 08:05:42;;;;;;;19.53;16.20;;;9.10;99.90;;;;;;4977807;28;20820;-74
2021/12/15 08:08:09;;;;;;;22.40;17.30;;;8.90;99.90;;;;;;4977123;28;20938;-74
2021/12/15 08:10:37;;;;;;;27.63;19.40;;;8.80;99.90;;;;;;4977587;28;20486;-73
2021/12/15 08:13:04;;;;;;;24.83;18.13;;;8.70;99.90;;;;;;4977744;28;20558;-74
2021/12/15 08:15:31;;;;;;;27.63;19.83;;;8.60;99.90;;;;;;4978205;28;20466;-73
2021/12/15 08:17:58;;;;;;;32.03;21.87;;;8.40;99.90;;;;;;4981371;28;20455;-74
2021/12/15 08:20:27;;;;;;;26.93;19.10;;;8.30;99.90;;;;;;4978071;28;20459;-73
2021/12/15 08:22:56;;;;;;;27.10;19.73;;;8.30;99.90;;;;;;4977690;28;20455;-73
2021/12/15 08:25:23;;;;;;;24.93;18.77;;;8.30;99.90;;;;;;4977503;28;20455;-74
2021/12/15 08:27:51;;;;;;;25.70;19.80;;;8.20;99.90;;;;;;4977553;28;20969;-74
2021/12/15 08:30:21;;;;;;;27.60;19.30;;;8.20;99.90;;;;;;4977527;28;20463;-74
2021/12/15 08:32:50;;;;;;;25.03;19.50;;;8.20;99.90;;;;;;4977118;28;20482;-74
2021/12/15 08:35:18;;;;;;;27.47;20.07;;;8.10;99.90;;;;;;4976670;28;20521;-74
2021/12/15 08:37:46;;;;;;;28.77;21.20;;;8.20;99.90;;;;;;4977902;28;20510;-74
2021/12/15 08:40:18;;;;;;;26.30;19.07;;;8.10;99.90;;;;;;4977477;28;20478;-74
2021/12/15 08:42:45;;;;;;;26.57;19.97;;;8.10;99.90;;;;;;4976890;28;20435;-74
2021/12/15 08:45:12;;;;;;;37.53;19.37;;;8.10;99.90;;;;;;4977183;28;20482;-74
2021/12/15 08:47:39;;;;;;;27.20;20.60;;;8.10;99.90;;;;;;4977193;28;20455;-74
2021/12/15 08:50:09;;;;;;;26.47;19.70;;;8.20;99.90;;;;;;4978869;28;20522;-74
2021/12/15 08:52:36;;;;;;;25.10;18.40;;;8.10;99.90;;;;;;4982226;28;20981;-74
2021/12/15 08:55:05;;;;;;;26.43;21.03;;;8.10;99.90;;;;;;4980263;28;20945;-74
2021/12/15 08:57:33;;;;;;;29.73;20.40;;;8.10;99.90;;;;;;4977646;28;20819;-73
2021/12/15 09:00:00;;;;;;;35.50;25.10;;;8.10;99.90;;;;;;4977182;28;20462;-73
2021/12/15 09:02:27;;;;;;;25.80;20.00;;;8.00;99.90;;;;;;4976325;28;20486;-74
2021/12/15 09:04:53;;;;;;;26.53;19.40;;;8.00;99.90;;;;;;4976367;28;20856;-74
2021/12/15 09:07:20;;;;;;;23.80;18.70;;;8.00;99.90;;;;;;4976505;28;20554;-72
2021/12/15 09:09:48;;;;;;;24.80;18.87;;;8.10;99.90;;;;;;4976898;28;20500;-73
2021/12/15 09:12:18;;;;;;;24.40;18.53;;;8.00;99.90;;;;;;4976957;28;20475;-73
2021/12/15 09:14:47;;;;;;;26.60;19.43;;;8.00;99.90;;;;;;4980698;28;20463;-75
2021/12/15 09:17:14;;;;;;;26.97;19.13;;;7.90;99.90;;;;;;4976835;28;20459;-73
2021/12/15 09:19:40;;;;;;;23.60;18.90;;;7.90;99.90;;;;;;4976067;28;20482;-73
2021/12/15 09:22:07;;;;;;;24.17;17.83;;;7.90;99.90;;;;;;4976843;28;20475;-73
2021/12/15 09:24:34;;;;;;;21.90;18.37;;;7.90;99.90;;;;;;4976509;28;20456;-73
2021/12/15 09:27:01;;;;;;;21.40;17.60;;;7.90;99.90;;;;;;4976378;28;20970;-73
2021/12/15 09:29:28;;;;;;;21.73;17.43;;;7.90;99.90;;;;;;4976766;28;20455;-72
2021/12/15 09:31:57;;;;;;;23.80;18.90;;;8.00;99.90;;;;;;4976075;28;20479;-73
2021/12/15 09:34:24;;;;;;;22.40;17.33;;;8.00;99.90;;;;;;4977035;28;20635;-72
2021/12/15 09:36:53;;;;;;;19.10;15.47;;;8.00;99.90;;;;;;4976231;28;20972;-72
2021/12/15 09:39:22;;;;;;;20.60;16.50;;;8.00;99.90;;;;;;4976472;28;20462;-73
2021/12/15 09:41:50;;;;;;;21.50;17.17;;;8.00;99.90;;;;;;4976553;28;20986;-73
2021/12/15 09:44:20;;;;;;;23.27;17.50;;;8.00;99.90;;;;;;4976686;28;20451;-73
2021/12/15 09:47:14;;;;;;;18.03;16.00;;;7.90;99.90;;;;;;4984115;28;20442;-73
2021/12/15 10:03:51;;;;;;;17.43;14.00;;;7.80;99.90;;;;;;4976662;28;20942;-74
2021/12/15 10:06:28;;;;;;;16.47;14.77;;;7.70;99.90;;;;;;4976246;28;20436;-73
2021/12/15 10:11:53;;;;;;;15.37;13.77;;;7.90;99.90;;;;;;4975547;28;20457;-73
2021/12/15 10:20:04;;;;;;;18.20;14.80;;;8.10;99.90;;;;;;4929775;28;20501;-73
2021/12/15 10:22:38;;;;;;;14.50;12.87;;;8.10;99.90;;;;;;4975843;28;20470;-72
2021/12/15 10:25:10;;;;;;;14.20;12.80;;;8.20;99.90;;;;;;4975977;28;20463;-73
2021/12/15 10:27:41;;;;;;;15.17;13.20;;;8.20;99.90;;;;;;4975502;28;20435;-75
2021/12/15 10:30:23;;;;;;;13.60;12.20;;;8.20;99.90;;;;;;4975870;28;20443;-74
2021/12/15 10:32:54;;;;;;;12.80;11.40;;;8.20;99.90;;;;;;4979520;28;20534;-73
2021/12/15 10:35:24;;;;;;;12.60;11.30;;;8.20;99.90;;;;;;4980019;28;20494;-74
2021/12/15 10:38:29;;;;;;;13.70;12.30;;;8.20;99.90;;;;;;4980230;28;20447;-74
2021/12/15 10:41:00;;;;;;;11.97;10.77;;;8.20;99.90;;;;;;4979895;28;20474;-74
2021/12/15 10:43:31;;;;;;;13.30;12.00;;;8.20;99.90;;;;;;4979646;28;20845;-74
2021/12/15 10:46:01;;;;;;;13.10;11.73;;;8.20;99.90;;;;;;4980069;28;20443;-73
2021/12/15 10:48:37;;;;;;;12.47;11.27;;;8.20;99.90;;;;;;4979558;28;20573;-73
2021/12/15 10:51:27;;;;;;;12.53;10.57;;;8.10;99.90;;;;;;4980092;28;20517;-74
2021/12/15 10:53:55;;;;;;;12.10;10.90;;;8.10;99.90;;;;;;4979576;28;20942;-73
2021/12/15 10:56:27;;;;;;;11.33;10.13;;;8.20;99.90;;;;;;4979255;28;20856;-74
2021/12/15 10:58:57;;;;;;;11.27;10.17;;;8.30;99.90;;;;;;4979585;28;20443;-74
2021/12/15 11:01:43;;;;;;;11.67;9.93;;;8.30;99.90;;;;;;4980102;28;20497;-74
2021/12/15 11:04:45;;;;;;;14.23;12.83;;;8.40;99.90;;;;;;4980927;28;20803;-74
2021/12/15 11:07:23;;;;;;;11.33;10.13;;;8.50;99.90;;;;;;4980210;28;20443;-74
2021/12/15 11:09:54;;;;;;;10.33;9.43;;;8.50;99.90;;;;;;4979585;28;20451;-74
2021/12/15 11:12:27;;;;;;;7.00;6.37;;;8.50;99.90;;;;;;4982588;28;20474;-74
2021/12/15 11:14:56;;;;;;;7.90;7.20;;;8.20;99.90;;;;;;4978689;28;20535;-74
2021/12/15 11:17:25;;;;;;;7.57;6.53;;;8.10;99.90;;;;;;4979886;28;20833;-74
2021/12/15 11:20:02;;;;;;;6.13;5.63;;;8.00;99.90;;;;;;4980283;28;20459;-74
2021/12/15 11:22:38;;;;;;;5.23;4.83;;;7.90;99.90;;;;;;4978777;28;20478;-74
2021/12/15 11:25:08;;;;;;;5.70;4.80;;;7.70;99.90;;;;;;4978746;28;20435;-74
2021/12/15 11:27:37;;;;;;;6.40;5.90;;;7.60;99.90;;;;;;4978604;28;20447;-74
2021/12/15 11:30:06;;;;;;;7.00;6.40;;;7.60;99.90;;;;;;4978964;28;20485;-74
2021/12/15 11:32:47;;;;;;;11.90;10.90;;;7.60;99.90;;;;;;4978047;28;20479;-74
2021/12/15 11:35:19;;;;;;;7.40;6.73;;;7.60;99.90;;;;;;4978641;28;20525;-74
2021/12/15 11:37:48;;;;;;;8.17;6.50;;;7.70;99.90;;;;;;4978855;28;20474;-74
2021/12/15 11:40:17;;;;;;;8.90;8.00;;;7.70;99.90;;;;;;4978662;28;20459;-74
2021/12/15 11:42:45;;;;;;;7.47;6.80;;;7.70;99.90;;;;;;4977893;28;20455;-74
2021/12/15 11:45:13;;;;;;;7.70;7.00;;;7.70;99.90;;;;;;4978866;28;20462;-74
2021/12/15 11:47:40;;;;;;;7.83;7.23;;;7.70;99.90;;;;;;4978648;28;20455;-78
2021/12/15 11:50:10;;;;;;;8.20;7.40;;;7.70;99.90;;;;;;4978588;28;20455;-74
2021/12/15 11:52:43;;;;;;;7.87;7.17;;;7.70;99.90;;;;;;4978554;28;20475;-74
2021/12/15 11:55:25;;;;;;;7.80;7.10;;;7.80;99.90;;;;;;4978318;28;20464;-74
2021/12/15 11:57:54;;;;;;;6.20;5.80;;;7.80;99.90;;;;;;4978365;28;20439;-74
2021/12/15 12:00:23;;;;;;;6.90;6.30;;;7.60;99.90;;;;;;4977993;28;20482;-74
2021/12/15 12:02:54;;;;;;;6.50;6.00;;;7.60;99.90;;;;;;4978253;28;20450;-74
2021/12/15 12:05:24;;;;;;;6.97;6.43;;;7.60;99.90;;;;;;4978708;28;20444;-74
2021/12/15 12:08:12;;;;;;;7.73;6.97;;;7.60;99.90;;;;;;4978023;28;20459;-74
2021/12/15 12:10:45;;;;;;;7.30;6.50;;;7.60;99.90;;;;;;4978982;28;20479;-74
2021/12/15 12:13:21;;;;;;;6.67;6.17;;;7.60;99.90;;;;;;4978354;28;20443;-74
2021/12/15 12:15:50;;;;;;;7.57;7.07;;;7.60;99.90;;;;;;4977958;28;20463;-74
2021/12/15 12:18:20;;;;;;;7.40;6.90;;;7.60;99.90;;;;;;4977968;28;20459;-74
2021/12/15 12:20:50;;;;;;;7.57;6.93;;;7.50;99.90;;;;;;4977753;28;20978;-74
2021/12/15 12:23:19;;;;;;;7.43;6.83;;;7.50;99.90;;;;;;4978044;28;20458;-74
2021/12/15 12:25:49;;;;;;;6.40;6.00;;;7.50;99.90;;;;;;4977607;28;20482;-74
2021/12/15 12:28:19;;;;;;;5.97;5.47;;;7.50;99.90;;;;;;4977659;28;20459;-74
2021/12/15 12:30:50;;;;;;;7.20;6.60;;;7.60;99.90;;;;;;4977498;28;20498;-73
2021/12/15 12:33:20;;;;;;;7.00;6.40;;;7.70;99.90;;;;;;4977782;28;20450;-73
2021/12/15 12:35:49;;;;;;;5.87;5.47;;;7.70;99.90;;;;;;4977581;28;20447;-74
2021/12/15 12:38:19;;;;;;;4.47;4.10;;;7.80;99.90;;;;;;4977660;28;20451;-74
2021/12/15 12:40:53;;;;;;;5.90;5.50;;;7.70;99.90;;;;;;4977360;28;20471;-74
2021/12/15 12:43:24;;;;;;;6.00;5.53;;;7.70;99.90;;;;;;4977229;28;20907;-74
2021/12/15 12:46:08;;;;;;;7.07;6.47;;;7.70;99.90;;;;;;4977292;28;20439;-74
2021/12/15 12:49:18;;;;;;;6.13;5.73;;;7.80;99.90;;;;;;4977595;28;20439;-74
2021/12/15 13:00:08;;;;;;;6.03;5.63;;;7.80;99.90;;;;;;4980855;28;20427;-74
2021/12/15 13:02:45;;;;;;;4.40;4.20;;;7.70;99.90;;;;;;5000284;28;20470;-73
2021/12/15 13:05:32;;;;;;;6.07;5.57;;;7.70;99.90;;;;;;4989274;28;20435;-73
2021/12/15 13:08:01;;;;;;;6.80;5.37;;;7.60;99.90;;;;;;4977818;28;20463;-73
2021/12/15 13:10:51;;;;;;;5.90;5.50;;;7.70;99.90;;;;;;4977689;28;20462;-74
2021/12/15 13:13:20;;;;;;;6.00;5.60;;;7.70;99.90;;;;;;4976697;28;20451;-74
2021/12/15 13:15:55;;;;;;;5.57;5.00;;;7.60;99.90;;;;;;4977293;28;20517;-74
2021/12/15 13:18:23;;;;;;;9.93;6.20;;;7.60;99.90;;;;;;4977705;28;20435;-74
2021/12/15 13:20:56;;;;;;;5.13;4.73;;;7.70;99.90;;;;;;4976914;28;20474;-74
2021/12/15 13:23:41;;;;;;;5.80;5.40;;;7.60;99.90;;;;;;4976972;28;20475;-74
2021/12/15 13:28:55;;;;;;;5.47;5.07;;;7.70;99.90;;;;;;4977236;28;20423;-74
2021/12/15 13:31:26;;;;;;;5.93;5.43;;;7.60;99.90;;;;;;4976903;28;20493;-74
2021/12/15 13:33:57;;;;;;;6.70;6.20;;;7.70;99.90;;;;;;4977027;28;20800;-74
2021/12/15 13:36:25;;;;;;;7.40;6.80;;;7.60;99.90;;;;;;4976972;28;21047;-74
2021/12/15 13:38:55;;;;;;;7.60;7.10;;;7.60;99.90;;;;;;4976671;28;20968;-74
2021/12/15 13:41:37;;;;;;;6.17;5.67;;;7.70;99.90;;;;;;4976782;28;20475;-74
2021/12/15 13:44:22;;;;;;;5.33;5.03;;;7.50;99.90;;;;;;4976440;28;20803;-74
2021/12/15 13:46:53;;;;;;;6.07;5.67;;;7.50;99.90;;;;;;4973844;28;20482;-74
2021/12/15 13:49:42;;;;;;;6.43;6.00;;;7.40;99.90;;;;;;4976005;28;20442;-73
2021/12/15 13:52:32;;;;;;;6.43;5.93;;;7.40;99.90;;;;;;4976428;28;20475;-74
2021/12/15 13:55:14;;;;;;;5.97;5.57;;;7.40;99.90;;;;;;4976473;28;20837;-74
2021/12/15 13:57:54;;;;;;;6.93;6.33;;;7.40;99.90;;;;;;4976697;28;20450;-74
2021/12/15 14:00:25;;;;;;;7.10;6.60;;;7.50;99.90;;;;;;4976465;28;20439;-74
2021/12/15 14:03:04;;;;;;;6.67;6.03;;;7.50;99.90;;;;;;4976566;28;20794;-74
2021/12/15 14:05:34;;;;;;;6.13;5.47;;;7.50;99.90;;;;;;4975567;28;20447;-74
2021/12/15 14:08:04;;;;;;;5.53;5.07;;;7.50;99.90;;;;;;4975733;28;20459;-74
2021/12/15 14:11:00;;;;;;;5.43;5.13;;;7.30;99.90;;;;;;4975442;28;20450;-74
2021/12/15 14:13:44;;;;;;;5.50;5.20;;;7.40;99.90;;;;;;4976443;28;20443;-74
2021/12/15 14:16:11;;;;;;;4.70;4.40;;;7.30;99.90;;;;;;4976629;28;20459;-74
2021/12/15 14:18:41;;;;;;;4.90;4.60;;;7.30;99.90;;;;;;4975527;28;20459;-75
2021/12/15 14:21:11;;;;;;;4.70;4.40;;;7.20;99.90;;;;;;4976084;28;20474;-74
2021/12/15 14:23:41;;;;;;;4.73;4.47;;;7.20;99.90;;;;;;4977094;28;20447;-74
2021/12/15 14:26:12;;;;;;;4.90;4.60;;;7.10;99.90;;;;;;4977016;28;20458;-74
2021/12/15 14:28:42;;;;;;;4.80;4.50;;;7.20;99.90;;;;;;4975767;28;20444;-73
2021/12/15 14:31:13;;;;;;;5.50;5.20;;;7.20;99.90;;;;;;4976269;28;20479;-73
2021/12/15 14:33:43;;;;;;;6.03;5.10;;;7.20;99.90;;;;;;4975860;28;20466;-73
2021/12/15 14:36:12;;;;;;;5.00;4.70;;;7.30;99.90;;;;;;4976236;28;20508;-73
2021/12/15 14:38:43;;;;;;;6.90;6.30;;;7.30;99.90;;;;;;4976387;28;20455;-73
2021/12/15 14:41:17;;;;;;;6.23;5.80;;;7.40;99.90;;;;;;4976442;28;20990;-74
2021/12/15 14:43:48;;;;;;;6.13;5.73;;;7.40;99.90;;;;;;4976560;28;20462;-74
2021/12/15 14:46:22;;;;;;;5.17;4.87;;;7.50;99.90;;;;;;4976526;28;20446;-75
2021/12/15 14:49:03;;;;;;;4.67;4.37;;;7.50;99.90;;;;;;4976363;28;20443;-73
2021/12/15 14:51:30;;;;;;;4.70;4.40;;;7.50;99.90;;;;;;4975975;28;20483;-73
2021/12/15 14:53:58;;;;;;;5.90;5.40;;;7.50;99.90;;;;;;4975711;28;20458;-73
2021/12/15 14:56:37;;;;;;;5.77;5.37;;;7.50;99.90;;;;;;4975909;28;20475;-72
2021/12/15 14:59:04;;;;;;;6.00;5.60;;;7.50;99.90;;;;;;4975938;28;20915;-74
2021/12/15 15:01:32;;;;;;;7.10;6.60;;;7.50;99.90;;;;;;4975059;28;20487;-74
2021/12/15 15:04:03;;;;;;;7.20;6.60;;;7.50;99.90;;;;;;4976174;28;20870;-73
2021/12/15 15:06:31;;;;;;;5.70;5.30;;;7.50;99.90;;;;;;4976363;28;20435;-74
2021/12/15 15:09:18;;;;;;;5.70;5.30;;;7.40;99.90;;;;;;4975618;28;20847;-74
2021/12/15 15:11:53;;;;;;;5.60;4.97;;;7.40;99.90;;;;;;4976006;28;20474;-73
2021/12/15 15:14:33;;;;;;;5.57;5.17;;;7.40;99.90;;;;;;4975606;28;20772;-75
2021/12/15 15:17:00;;;;;;;5.70;5.30;;;7.40;99.90;;;;;;4975149;28;20911;-74
2021/12/15 15:19:31;;;;;;;6.53;6.00;;;7.40;99.90;;;;;;4978591;28;20455;-73
2021/12/15 15:21:59;;;;;;;6.17;5.67;;;7.30;99.90;;;;;;4980604;28;20502;-74
2021/12/15 15:24:33;;;;;;;6.30;5.80;;;7.20;99.90;;;;;;4980055;28;20455;-73
2021/12/15 15:27:04;;;;;;;7.87;7.27;;;7.20;99.90;;;;;;4979387;28;20451;-71
2021/12/15 15:29:35;;;;;;;7.97;6.70;;;7.30;99.90;;;;;;4981065;28;20443;-73
2021/12/15 15:32:11;;;;;;;6.80;6.30;;;7.40;99.90;;;;;;4980446;28;21048;-74
2021/12/15 15:34:42;;;;;;;7.73;7.00;;;7.40;99.90;;;;;;4979868;28;20485;-73
2021/12/15 15:37:16;;;;;;;7.30;6.70;;;7.40;99.90;;;;;;4978928;28;20471;-74
2021/12/15 15:39:43;;;;;;;7.07;6.47;;;7.50;99.90;;;;;;4979244;28;20839;-74
2021/12/15 15:42:21;;;;;;;7.30;6.70;;;7.40;99.90;;;;;;4978413;28;20483;-74
2021/12/15 15:44:47;;;;;;;8.23;6.93;;;7.30;99.90;;;;;;4979051;28;20440;-73
2021/12/15 15:47:16;;;;;;;8.23;7.43;;;7.30;99.90;;;;;;4979087;28;20455;-73
2021/12/15 15:49:55;;;;;;;7.57;6.93;;;7.40;99.90;;;;;;4979791;28;20462;-73
2021/12/15 15:52:22;;;;;;;7.00;6.50;;;7.40;99.90;;;;;;4998747;28;20974;-73
2021/12/15 15:54:49;;;;;;;8.03;7.30;;;7.30;99.90;;;;;;4990503;28;20841;-73
2021/12/15 15:57:17;;;;;;;7.73;7.13;;;7.30;99.90;;;;;;4981415;28;20846;-73
2021/12/15 15:59:44;;;;;;;7.40;6.77;;;7.20;99.90;;;;;;4980877;28;20458;-74
2021/12/15 16:02:11;;;;;;;8.53;7.83;;;7.30;99.90;;;;;;4979554;28;21032;-74
2021/12/15 16:04:40;;;;;;;7.67;7.07;;;7.30;99.90;;;;;;4978781;28;20954;-74
2021/12/15 16:07:09;;;;;;;7.40;6.90;;;7.30;99.90;;;;;;4978484;28;20454;-73
2021/12/15 16:09:39;;;;;;;9.23;8.50;;;7.40;99.90;;;;;;4978221;28;20459;-73
2021/12/15 16:12:11;;;;;;;7.87;7.27;;;7.40;99.90;;;;;;4978166;28;20507;-74
2021/12/15 16:14:44;;;;;;;8.47;7.80;;;7.40;99.90;;;;;;4977990;28;20942;-73
2021/12/15 16:17:23;;;;;;;7.40;6.90;;;7.40;99.90;;;;;;4978474;28;20443;-73
2021/12/15 16:20:05;;;;;;;7.60;7.00;;;7.40;99.90;;;;;;4978212;28;20439;-73
2021/12/15 16:22:52;;;;;;;7.87;7.27;;;7.40;99.90;;;;;;4977836;28;20482;-73
2021/12/15 16:25:22;;;;;;;7.97;7.47;;;7.30;99.90;;;;;;4977520;28;20440;-73
2021/12/15 16:27:52;;;;;;;7.53;6.83;;;7.30;99.90;;;;;;4977548;28;20526;-73
2021/12/15 16:30:25;;;;;;;8.50;7.80;;;7.20;99.90;;;;;;4977390;28;20447;-74
2021/12/15 16:32:55;;;;;;;19.03;15.30;;;7.20;99.90;;;;;;4977236;28;20910;-73
2021/12/15 16:35:24;;;;;;;9.87;8.97;;;7.20;99.90;;;;;;4977699;28;20479;-74
2021/12/15 16:37:52;;;;;;;8.50;7.63;;;7.10;99.90;;;;;;4977539;28;20965;-74
2021/12/15 16:40:30;;;;;;;11.03;10.13;;;7.20;99.90;;;;;;4977631;28;20462;-74
2021/12/15 16:43:05;;;;;;;10.07;9.17;;;7.20;99.90;;;;;;4977415;28;20483;-73
2021/12/15 16:45:33;;;;;;;11.13;10.23;;;7.30;99.90;;;;;;4977363;28;20441;-74
2021/12/15 16:48:01;;;;;;;9.87;9.03;;;7.30;99.90;;;;;;4977563;28;20502;-73
2021/12/15 16:50:28;;;;;;;10.50;9.60;;;7.30;99.90;;;;;;4977350;28;20466;-72
2021/12/15 16:52:56;;;;;;;9.53;8.80;;;7.30;99.90;;;;;;4977201;28;20454;-73
2021/12/15 16:55:27;;;;;;;9.43;8.00;;;7.30;99.90;;;;;;4977298;28;20505;-72
2021/12/15 16:57:56;;;;;;;7.10;6.50;;;7.30;99.90;;;;;;4977483;28;20439;-73
2021/12/15 17:00:25;;;;;;;8.47;7.77;;;7.30;99.90;;;;;;4976434;28;20463;-73
2021/12/15 17:02:55;;;;;;;8.20;7.60;;;7.20;99.90;;;;;;4977138;28;20454;-73
2021/12/15 17:05:27;;;;;;;9.80;9.10;;;7.30;99.90;;;;;;4976734;28;20451;-73
2021/12/15 17:08:00;;;;;;;9.70;8.93;;;7.30;99.90;;;;;;4977459;28;20891;-74
2021/12/15 17:10:34;;;;;;;8.73;8.13;;;7.30;99.90;;;;;;4977285;28;20447;-72
2021/12/15 17:13:05;;;;;;;9.20;8.40;;;7.40;99.90;;;;;;4977553;28;20870;-74
2021/12/15 17:15:42;;;;;;;9.63;8.73;;;7.40;99.90;;;;;;4977737;28;20507;-74
2021/12/15 17:18:21;;;;;;;8.27;7.67;;;7.30;99.90;;;;;;4977439;28;20439;-74
2021/12/15 17:20:48;;;;;;;8.60;8.00;;;7.30;99.90;;;;;;4977814;28;20474;-74
2021/12/15 17:23:22;;;;;;;9.13;8.43;;;7.30;99.90;;;;;;4977728;28;20821;-73
2021/12/15 17:25:51;;;;;;;8.23;7.63;;;7.20;99.90;;;;;;4977301;28;20446;-74
2021/12/15 17:28:22;;;;;;;7.50;7.00;;;7.20;99.90;;;;;;4977015;28;20462;-73
2021/12/15 17:30:52;;;;;;;9.00;8.30;;;7.20;99.90;;;;;;4976812;28;20479;-74
2021/12/15 17:33:33;;;;;;;9.10;8.40;;;7.20;99.90;;;;;;4978435;28;20446;-73
2021/12/15 17:36:16;;;;;;;8.40;7.70;;;7.20;99.90;;;;;;4976470;28;20463;-73
2021/12/15 17:38:50;;;;;;;10.23;9.50;;;7.00;99.90;;;;;;4977337;28;20451;-73
2021/12/15 17:41:20;;;;;;;11.60;10.70;;;7.10;99.90;;;;;;4977456;28;20478;-73
2021/12/15 17:43:47;;;;;;;10.90;10.00;;;7.00;99.90;;;;;;4999762;28;20451;-74
2021/12/15 17:46:25;;;;;;;11.13;10.23;;;7.10;99.90;;;;;;4993955;28;20926;-73
2021/12/15 17:49:01;;;;;;;11.40;10.30;;;7.10;99.90;;;;;;4976857;28;20446;-73
2021/12/15 17:51:48;;;;;;;11.03;10.13;;;7.10;99.90;;;;;;4977590;28;20474;-73
2021/12/15 17:54:18;;;;;;;10.87;9.97;;;7.00;99.90;;;;;;4977415;28;20807;-73
2021/12/15 17:56:45;;;;;;;11.97;10.87;;;7.10;99.90;;;;;;4976297;28;20468;-73
2021/12/15 17:59:13;;;;;;;12.20;11.10;;;7.00;99.90;;;;;;4976717;28;20949;-74
2021/12/15 18:01:42;;;;;;;11.27;10.27;;;7.10;99.90;;;;;;4975742;28;20513;-74
2021/12/15 18:04:11;;;;;;;12.10;11.10;;;7.10;99.90;;;;;;4975786;28;20459;-74
2021/12/15 18:06:41;;;;;;;12.20;10.87;;;7.20;99.90;;;;;;4976889;28;20463;-75
2021/12/15 18:09:10;;;;;;;12.73;11.70;;;7.20;99.90;;;;;;4976414;28;20455;-74
2021/12/15 18:11:40;;;;;;;13.40;12.20;;;7.30;99.90;;;;;;4976599;28;20490;-74
2021/12/15 18:14:08;;;;;;;12.33;11.23;;;7.20;99.90;;;;;;4976368;28;20522;-72
2021/12/15 18:16:35;;;;;;;16.17;14.27;;;7.30;99.90;;;;;;4976241;28;20576;-73
2021/12/15 18:19:04;;;;;;;18.30;16.30;;;7.20;99.90;;;;;;4976267;28;20461;-74
2021/12/15 18:21:38;;;;;;;17.87;15.97;;;7.30;99.90;;;;;;4976464;28;20545;-74
2021/12/15 18:24:07;;;;;;;13.10;12.00;;;7.30;99.90;;;;;;4976712;28;20827;-73
2021/12/15 18:26:35;;;;;;;13.63;12.43;;;7.40;99.90;;;;;;4976834;28;20458;-73
2021/12/15 18:29:07;;;;;;;13.17;12.07;;;7.40;99.90;;;;;;4976268;28;20455;-74
2021/12/15 18:31:37;;;;;;;12.07;11.00;;;7.40;99.90;;;;;;4976384;28;20485;-74
2021/12/15 18:34:06;;;;;;;12.50;11.20;;;7.40;99.90;;;;;;4976406;28;20575;-73
2021/12/15 18:36:35;;;;;;;13.03;11.93;;;7.20;99.90;;;;;;4976331;28;20478;-73
2021/12/15 18:39:02;;;;;;;10.83;9.93;;;7.10;99.90;;;;;;4975884;28;20973;-75
2021/12/15 18:41:30;;;;;;;11.77;10.70;;;7.10;99.90;;;;;;4975952;28;20474;-73
2021/12/15 18:44:03;;;;;;;11.80;10.80;;;7.10;99.90;;;;;;4976831;28;20459;-73
2021/12/15 18:46:34;;;;;;;12.83;11.73;;;7.10;99.90;;;;;;4976375;28;20534;-73
2021/12/15 18:49:08;;;;;;;13.90;12.60;;;7.10;99.90;;;;;;4976276;28;20443;-73
2021/12/15 18:51:34;;;;;;;13.43;12.30;;;7.10;99.90;;;;;;4977441;28;20527;-73